Time;durP1;ratioP1;P1;durP2;ratioP2;P2;SDS_P1;SDS_P2;PMS_P1;PMS_P2;Temp;Humidity;BMP_temperature;BMP_pressure;BME280_temperature;BME280_humidity;BME280_pressure;Samples;Min_cycle;Max_cycle;Signal;HPM_P1;HPM_P2
2022/10/02 00:00:34;;;;;;;;;;;;;;;13.26;80.36;100677.66;5045874;28;19931;-75
2022/10/02 00:03:03;;;;;;;;;;;;;;;13.28;79.87;100681.88;5037917;28;19925;-75
2022/10/02 00:05:34;;;;;;;;;;;;;;;13.39;79.29;100686.44;5046783;28;19928;-75
2022/10/02 00:08:04;;;;;;;;;;;;;;;13.03;81.18;100690.44;5066296;28;19977;-75
2022/10/02 00:10:34;;;;;;;;;;;;;;;12.98;81.23;100695.13;5047601;28;20549;-76
2022/10/02 00:13:02;;;;;;;;;;;;;;;13.13;80.69;100691.59;5046029;28;19946;-75
2022/10/02 00:15:31;;;;;;;;;;;;;;;13.26;80.18;100694.31;5045008;28;19955;-76
2022/10/02 00:17:59;;;;;;;;;;;;;;;13.15;80.23;100694.13;5039938;28;19924;-76
2022/10/02 00:20:30;;;;;;;;;;;;;;;13.29;79.35;100707.28;5044861;28;19932;-75
2022/10/02 00:23:00;;;;;;;;;;;;;;;13.10;80.42;100702.31;5036164;28;19932;-75
2022/10/02 00:25:29;;;;;;;;;;;;;;;13.03;80.84;100706.25;5046424;28;19933;-75
2022/10/02 00:28:10;;;;;;;;;;;;;;;12.97;81.43;100709.22;5046994;28;19932;-75
2022/10/02 00:30:41;;;;;;;;;;;;;;;13.00;80.92;100705.59;5043205;28;19928;-75
2022/10/02 00:33:14;;;;;;;;;;;;;;;12.94;81.47;100706.78;5045707;28;20358;-75
2022/10/02 00:36:08;;;;;;;;;;;;;;;13.00;80.64;100703.81;5036185;28;19935;-75
2022/10/02 00:38:42;;;;;;;;;;;;;;;12.86;81.50;100710.88;5020819;28;19967;-75
2022/10/02 00:41:19;;;;;;;;;;;;;;;13.06;80.87;100708.69;5044170;28;19936;-75
2022/10/02 00:43:51;;;;;;;;;;;;;;;13.11;79.87;100711.06;5045363;28;19931;-75
2022/10/02 00:46:26;;;;;;;;;;;;;;;13.36;78.99;100712.97;5035387;28;20166;-75
2022/10/02 00:49:07;;;;;;;;;;;;;;;13.35;78.57;100712.13;5043043;28;19956;-75
2022/10/02 00:51:44;;;;;;;;;;;;;;;13.28;79.17;100710.84;5037298;28;20265;-75
2022/10/02 00:54:24;;;;;;;;;;;;;;;13.26;78.96;100719.78;5046034;28;19940;-75
2022/10/02 00:56:52;;;;;;;;;;;;;;;13.13;79.76;100711.78;5037560;28;20302;-75
2022/10/02 00:59:25;;;;;;;;;;;;;;;12.91;80.98;100721.94;5045090;28;20281;-75
2022/10/02 01:01:53;;;;;;;;;;;;;;;13.11;80.34;100722.44;5035770;28;19924;-76
2022/10/02 01:04:20;;;;;;;;;;;;;;;12.97;80.62;100719.75;5045947;28;19924;-76
2022/10/02 01:06:47;;;;;;;;;;;;;;;13.18;79.86;100725.53;5044998;28;19940;-75
2022/10/02 01:09:14;;;;;;;;;;;;;;;13.27;79.73;100724.09;5034168;28;19935;-75
2022/10/02 01:11:42;;;;;;;;;;;;;;;13.38;79.09;100724.25;5046017;28;19928;-75
2022/10/02 01:14:08;;;;;;;;;;;;;;;13.37;78.64;100723.44;5053484;28;19935;-75
2022/10/02 01:16:34;;;;;;;;;;;;;;;13.30;79.40;100723.91;5052197;28;19931;-75
2022/10/02 01:19:01;;;;;;;;;;;;;;;13.18;79.23;100725.53;5033925;28;19932;-76
2022/10/02 01:21:33;;;;;;;;;;;;;;;13.32;79.21;100724.66;5047330;28;19924;-76
2022/10/02 01:24:01;;;;;;;;;;;;;;;13.04;80.27;100731.59;5037947;28;19931;-76
2022/10/02 01:26:29;;;;;;;;;;;;;;;13.25;79.61;100736.53;5046649;28;19925;-76
2022/10/02 01:28:55;;;;;;;;;;;;;;;13.17;80.06;100739.63;5047079;28;19924;-76
2022/10/02 01:31:23;;;;;;;;;;;;;;;13.03;80.38;100739.59;5041175;28;19924;-76
2022/10/02 01:33:50;;;;;;;;;;;;;;;13.07;80.53;100738.47;5051478;28;20552;-76
2022/10/02 01:36:16;;;;;;;;;;;;;;;13.13;80.34;100740.75;5052308;28;20534;-75
2022/10/02 01:38:43;;;;;;;;;;;;;;;13.02;80.60;100736.13;5041387;28;19931;-75
2022/10/02 01:41:10;;;;;;;;;;;;;;;13.05;80.22;100745.59;5050614;28;19924;-75
2022/10/02 01:43:39;;;;;;;;;;;;;;;13.04;80.55;100739.50;5051554;28;19947;-75
2022/10/02 01:46:15;;;;;;;;;;;;;;;13.20;79.99;100749.13;5040360;28;19929;-76
2022/10/02 01:48:45;;;;;;;;;;;;;;;13.06;80.34;100740.25;5050475;28;19924;-77
2022/10/02 01:51:19;;;;;;;;;;;;;;;13.21;79.47;100745.53;5040584;28;19935;-77
2022/10/02 01:53:48;;;;;;;;;;;;;;;13.37;78.75;100743.66;5051062;28;19932;-77
2022/10/02 01:56:17;;;;;;;;;;;;;;;13.47;78.48;100740.34;5047344;28;20295;-76
2022/10/02 01:58:51;;;;;;;;;;;;;;;13.43;78.43;100751.16;5040046;28;19924;-76
2022/10/02 02:01:22;;;;;;;;;;;;;;;13.07;79.70;100741.97;5049668;28;19952;-76
2022/10/02 02:03:53;;;;;;;;;;;;;;;13.19;79.27;100747.44;5040219;28;19979;-76
2022/10/02 02:06:26;;;;;;;;;;;;;;;13.19;79.05;100744.81;5050753;28;19924;-76
2022/10/02 02:08:57;;;;;;;;;;;;;;;13.37;78.05;100746.28;5050410;28;19924;-74
2022/10/02 02:11:23;;;;;;;;;;;;;;;13.34;78.43;100746.50;5049747;28;19940;-74
2022/10/02 02:13:53;;;;;;;;;;;;;;;13.41;78.05;100746.00;5050229;28;19928;-73
2022/10/02 02:16:22;;;;;;;;;;;;;;;13.62;76.71;100744.63;5042028;28;19925;-74
2022/10/02 02:18:52;;;;;;;;;;;;;;;13.79;76.73;100758.50;5045259;28;19929;-74
2022/10/02 02:21:22;;;;;;;;;;;;;;;13.63;76.49;100759.47;5051201;28;19931;-73
2022/10/02 02:23:49;;;;;;;;;;;;;;;13.53;77.41;100768.91;5020446;28;20300;-74
2022/10/02 02:26:17;;;;;;;;;;;;;;;13.48;77.42;100776.28;5046640;28;19928;-74
2022/10/02 02:28:47;;;;;;;;;;;;;;;13.57;77.17;100770.41;5050730;28;19928;-73
2022/10/02 02:31:17;;;;;;;;;;;;;;;13.53;77.50;100779.44;5040801;28;19944;-73
2022/10/02 02:33:45;;;;;;;;;;;;;;;13.36;78.41;100784.94;5050370;28;19931;-74
2022/10/02 02:36:15;;;;;;;;;;;;;;;13.08;81.33;100796.28;5052066;28;19932;-77
2022/10/02 02:38:44;;;;;;;;;;;;;;;12.80;84.43;100803.31;5049862;28;19937;-77
2022/10/02 02:41:13;;;;;;;;;;;;;;;12.60;86.27;100794.00;5049459;28;19928;-78
2022/10/02 02:43:43;;;;;;;;;;;;;;;12.55;86.97;100796.03;5040650;28;19928;-78
2022/10/02 02:46:14;;;;;;;;;;;;;;;12.48;87.43;100792.06;5051944;28;19924;-78
2022/10/02 02:48:44;;;;;;;;;;;;;;;12.32;88.17;100771.06;5043756;28;19925;-78
2022/10/02 02:51:14;;;;;;;;;;;;;;;12.43;87.95;100784.44;5027435;28;19925;-77
2022/10/02 02:53:42;;;;;;;;;;;;;;;12.61;87.00;100777.25;5050304;28;19929;-77
2022/10/02 02:56:12;;;;;;;;;;;;;;;12.83;85.30;100782.06;5048392;28;19924;-77
2022/10/02 02:58:41;;;;;;;;;;;;;;;12.89;85.39;100781.72;5044708;28;19933;-77
2022/10/02 03:01:08;;;;;;;;;;;;;;;12.90;84.85;100778.97;5052059;28;19935;-77
2022/10/02 03:03:34;;;;;;;;;;;;;;;12.83;85.00;100782.06;5050495;28;19925;-78
2022/10/02 03:06:06;;;;;;;;;;;;;;;13.13;83.45;100774.97;5056253;28;19925;-78
2022/10/02 03:08:35;;;;;;;;;;;;;;;13.06;83.87;100765.75;5066863;28;19940;-79
2022/10/02 03:11:05;;;;;;;;;;;;;;;13.15;83.31;100776.56;5065871;28;19923;-78
2022/10/02 03:13:41;;;;;;;;;;;;;;;13.27;83.10;100787.28;5075153;28;19983;-78
2022/10/02 03:16:16;;;;;;;;;;;;;;;13.33;82.64;100773.75;5056352;28;19925;-78
2022/10/02 03:18:50;;;;;;;;;;;;;;;13.16;83.35;100774.78;5063221;28;19922;-78
2022/10/02 03:21:22;;;;;;;;;;;;;;;12.99;84.14;100772.31;5076436;28;19924;-78
2022/10/02 03:23:54;;;;;;;;;;;;;;;13.24;83.41;100769.91;5045982;28;19928;-77
2022/10/02 03:26:26;;;;;;;;;;;;;;;13.13;83.74;100775.84;5051797;28;19924;-77
2022/10/02 03:28:53;;;;;;;;;;;;;;;13.27;83.47;100780.22;5043447;28;19924;-77
2022/10/02 03:31:21;;;;;;;;;;;;;;;13.40;82.46;100786.44;5053814;28;19924;-76
2022/10/02 03:33:48;;;;;;;;;;;;;;;13.30;82.67;100790.59;5052198;28;21903;-77
2022/10/02 03:36:16;;;;;;;;;;;;;;;13.00;84.10;100784.56;5042347;28;19925;-77
2022/10/02 03:38:44;;;;;;;;;;;;;;;13.23;83.12;100789.25;5050934;28;19924;-78
2022/10/02 03:41:11;;;;;;;;;;;;;;;13.34;82.03;100786.81;5051873;28;19932;-78
2022/10/02 03:43:38;;;;;;;;;;;;;;;13.14;82.36;100792.47;5041381;28;19929;-78
2022/10/02 03:46:04;;;;;;;;;;;;;;;12.66;85.12;100789.22;5050392;28;19924;-77
2022/10/02 03:48:30;;;;;;;;;;;;;;;13.00;83.72;100780.13;5051553;28;20472;-77
2022/10/02 03:50:57;;;;;;;;;;;;;;;13.15;82.34;100788.91;5040360;28;19941;-77
2022/10/02 03:53:25;;;;;;;;;;;;;;;13.34;81.23;100805.25;5049249;28;19924;-77
2022/10/02 03:55:55;;;;;;;;;;;;;;;13.23;81.44;100794.53;5053014;28;19929;-77
2022/10/02 03:58:21;;;;;;;;;;;;;;;13.04;81.72;100791.31;5043128;28;19928;-78
2022/10/02 04:00:52;;;;;;;;;;;;;;;13.01;81.96;100799.38;5051549;28;19928;-78
2022/10/02 04:03:21;;;;;;;;;;;;;;;12.70;82.67;100800.41;5053783;28;19931;-78
2022/10/02 04:05:51;;;;;;;;;;;;;;;12.42;84.85;100795.91;5043502;28;19925;-78
2022/10/02 04:08:18;;;;;;;;;;;;;;;12.38;84.79;100796.19;5052586;28;19924;-78
2022/10/02 04:10:49;;;;;;;;;;;;;;;12.90;82.06;100801.81;5052341;28;19928;-78
2022/10/02 04:13:24;;;;;;;;;;;;;;;13.00;80.27;100797.72;5048339;28;19924;-78
2022/10/02 04:16:01;;;;;;;;;;;;;;;12.14;83.73;100794.03;5044814;28;20307;-78
2022/10/02 04:18:31;;;;;;;;;;;;;;;11.63;87.04;100792.53;5045713;28;19940;-78
2022/10/02 04:20:59;;;;;;;;;;;;;;;11.55;87.49;100801.75;5049277;28;19924;-78
2022/10/02 04:23:28;;;;;;;;;;;;;;;11.64;86.91;100802.06;5041739;28;19924;-78
2022/10/02 04:25:58;;;;;;;;;;;;;;;12.15;84.10;100803.63;5051839;28;19935;-78
2022/10/02 04:28:28;;;;;;;;;;;;;;;12.32;82.89;100796.53;5050937;28;19932;-78
2022/10/02 04:30:55;;;;;;;;;;;;;;;12.31;82.52;100802.72;5040769;28;19924;-78
2022/10/02 04:33:22;;;;;;;;;;;;;;;12.03;83.96;100804.31;5050077;28;19925;-78
2022/10/02 04:35:52;;;;;;;;;;;;;;;12.24;83.37;100798.75;5050473;28;19931;-78
2022/10/02 04:38:29;;;;;;;;;;;;;;;11.97;83.93;100809.06;5040068;28;19924;-78
2022/10/02 04:41:03;;;;;;;;;;;;;;;12.05;83.88;100804.19;5049113;28;19924;-77
2022/10/02 04:43:39;;;;;;;;;;;;;;;12.16;83.56;100804.44;5040485;28;19924;-77
2022/10/02 04:46:11;;;;;;;;;;;;;;;12.31;82.57;100795.66;5048386;28;19924;-77
2022/10/02 04:48:51;;;;;;;;;;;;;;;12.09;83.59;100797.84;5039923;28;19932;-77
2022/10/02 04:51:26;;;;;;;;;;;;;;;11.92;84.21;100805.84;5044092;28;19935;-77
2022/10/02 04:54:07;;;;;;;;;;;;;;;12.08;84.07;100817.19;5019378;28;19929;-77
2022/10/02 04:56:46;;;;;;;;;;;;;;;12.04;83.14;100813.03;5047592;28;19928;-77
2022/10/02 04:59:30;;;;;;;;;;;;;;;11.96;84.16;100821.34;5038298;28;19925;-77
2022/10/02 05:02:06;;;;;;;;;;;;;;;11.98;84.49;100824.72;5036580;28;19931;-77
2022/10/02 05:04:44;;;;;;;;;;;;;;;12.23;83.24;100824.22;5038684;28;19931;-77
2022/10/02 05:07:17;;;;;;;;;;;;;;;12.12;83.57;100816.91;5047339;28;20551;-77
2022/10/02 05:09:48;;;;;;;;;;;;;;;11.79;84.98;100816.16;5038460;28;19932;-78
2022/10/02 05:12:26;;;;;;;;;;;;;;;11.64;86.05;100815.19;5047330;28;19932;-76
2022/10/02 05:15:11;;;;;;;;;;;;;;;11.21;88.28;100821.06;5037847;28;19924;-76
2022/10/02 05:17:45;;;;;;;;;;;;;;;11.34;88.50;100818.66;5048438;28;19924;-76
2022/10/02 05:20:27;;;;;;;;;;;;;;;11.17;88.26;100817.78;5030815;28;19932;-78
2022/10/02 05:23:04;;;;;;;;;;;;;;;11.21;89.06;100829.81;5047807;28;19925;-78
2022/10/02 05:25:43;;;;;;;;;;;;;;;11.67;86.49;100817.69;5037776;28;20380;-78
2022/10/02 05:28:27;;;;;;;;;;;;;;;11.89;86.03;100821.78;5048190;28;19924;-78
2022/10/02 05:31:02;;;;;;;;;;;;;;;11.81;86.70;100818.72;5037967;28;19935;-78
2022/10/02 05:33:37;;;;;;;;;;;;;;;11.56;87.89;100812.16;5047204;28;19935;-78
2022/10/02 05:36:11;;;;;;;;;;;;;;;11.64;87.84;100809.13;5038245;28;19932;-78
2022/10/02 05:38:54;;;;;;;;;;;;;;;11.57;89.68;100808.59;5047122;28;19924;-78
2022/10/02 05:41:24;;;;;;;;;;;;;;;11.87;88.49;100806.09;5037205;28;19925;-78
2022/10/02 05:43:53;;;;;;;;;;;;;;;11.88;88.76;100809.56;5046482;28;19982;-78
2022/10/02 05:46:22;;;;;;;;;;;;;;;11.65;90.12;100802.91;5045298;28;19951;-78
2022/10/02 05:48:54;;;;;;;;;;;;;;;11.63;90.79;100818.78;5046972;28;19924;-78
2022/10/02 05:51:23;;;;;;;;;;;;;;;11.99;89.58;100822.94;5047074;28;19924;-78
2022/10/02 05:53:51;;;;;;;;;;;;;;;12.49;86.87;100818.28;5017719;28;19929;-78
2022/10/02 05:56:21;;;;;;;;;;;;;;;12.42;87.80;100821.34;5043811;28;19947;-78
2022/10/02 05:58:50;;;;;;;;;;;;;;;12.54;87.19;100813.59;5048519;28;19974;-78
2022/10/02 06:01:20;;;;;;;;;;;;;;;13.03;85.07;100818.56;5037395;28;20467;-78
2022/10/02 06:03:50;;;;;;;;;;;;;;;13.18;83.72;100820.31;5047555;28;19924;-78
2022/10/02 06:06:21;;;;;;;;;;;;;;;13.28;83.12;100825.84;5046041;28;19925;-78
2022/10/02 06:08:49;;;;;;;;;;;;;;;13.82;81.07;100832.94;5047909;28;19928;-78
2022/10/02 06:11:19;;;;;;;;;;;;;;;13.50;81.63;100827.06;5046162;28;19932;-78
2022/10/02 06:13:47;;;;;;;;;;;;;;;13.23;83.49;100823.50;5037111;28;19951;-78
2022/10/02 06:16:17;;;;;;;;;;;;;;;12.95;84.19;100832.19;5048072;28;20296;-78
2022/10/02 06:18:47;;;;;;;;;;;;;;;13.29;83.53;100831.03;5050549;28;20634;-78
2022/10/02 06:21:20;;;;;;;;;;;;;;;13.52;82.20;100838.38;5033092;28;19925;-78
2022/10/02 06:23:50;;;;;;;;;;;;;;;13.44;81.57;100834.50;5050655;28;20334;-78
2022/10/02 06:26:24;;;;;;;;;;;;;;;13.71;80.42;100845.94;5040362;28;20387;-79
2022/10/02 06:28:53;;;;;;;;;;;;;;;13.54;80.78;100849.66;5030030;28;19925;-78
2022/10/02 06:31:21;;;;;;;;;;;;;;;13.43;82.34;100845.97;5030838;28;20377;-79
2022/10/02 06:33:48;;;;;;;;;;;;;;;13.25;83.13;100855.88;5021097;28;19924;-79
2022/10/02 06:36:30;;;;;;;;;;;;;;;13.18;83.20;100844.00;5030182;28;19932;-78
2022/10/02 06:39:13;;;;;;;;;;;;;;;13.11;84.43;100861.97;5020150;28;20273;-79
2022/10/02 06:41:44;;;;;;;;;;;;;;;13.10;84.55;100864.69;5037395;28;19929;-79
2022/10/02 06:44:22;;;;;;;;;;;;;;;13.07;85.12;100856.94;5041215;28;19930;-76
2022/10/02 06:46:56;;;;;;;;;;;;;;;13.11;85.99;100863.75;5049309;28;19932;-75
2022/10/02 06:49:30;;;;;;;;;;;;;;;13.37;85.43;100857.75;5039373;28;19931;-75
2022/10/02 06:52:03;;;;;;;;;;;;;;;13.49;84.15;100858.75;5049225;28;19925;-75
2022/10/02 06:54:35;;;;;;;;;;;;;;;13.68;83.58;100859.31;5050326;28;20292;-76
2022/10/02 06:57:20;;;;;;;;;;;;;;;13.93;82.09;100866.53;5049765;28;19972;-75
2022/10/02 07:00:01;;;;;;;;;;;;;;;13.82;82.21;100864.56;5047817;28;20388;-77
2022/10/02 07:02:34;;;;;;;;;;;;;;;13.41;84.44;100880.34;5040953;28;20287;-79
2022/10/02 07:05:16;;;;;;;;;;;;;;;13.06;88.29;100873.66;5050348;28;19931;-79
2022/10/02 07:07:49;;;;;;;;;;;;;;;13.16;88.59;100865.16;5049366;28;19931;-78
2022/10/02 07:10:25;;;;;;;;;;;;;;;13.39;88.03;100863.75;5048766;28;19931;-77
2022/10/02 07:13:02;;;;;;;;;;;;;;;13.54;87.15;100867.25;5049251;28;19971;-77
2022/10/02 07:15:38;;;;;;;;;;;;;;;13.64;86.74;100865.72;5049734;28;19924;-77
2022/10/02 07:18:10;;;;;;;;;;;;;;;13.76;86.25;100864.97;5050135;28;19947;-78
2022/10/02 07:20:44;;;;;;;;;;;;;;;13.89;85.81;100860.63;5050472;28;19931;-79
2022/10/02 07:23:29;;;;;;;;;;;;;;;14.00;85.81;100857.31;5041227;28;19951;-79
2022/10/02 07:26:14;;;;;;;;;;;;;;;14.08;85.47;100863.75;5049952;28;19932;-79
2022/10/02 07:28:42;;;;;;;;;;;;;;;14.39;85.25;100870.56;5048060;28;19928;-80
2022/10/02 07:31:14;;;;;;;;;;;;;;;14.46;85.13;100882.41;5050056;28;19924;-80
2022/10/02 07:33:47;;;;;;;;;;;;;;;14.75;84.80;100893.69;5026760;28;20027;-80
2022/10/02 07:36:17;;;;;;;;;;;;;;;14.72;84.90;100887.75;5044068;28;20476;-79
2022/10/02 07:39:01;;;;;;;;;;;;;;;14.97;83.40;100891.28;5040259;28;19924;-79
2022/10/02 07:41:37;;;;;;;;;;;;;;;15.15;82.80;100883.91;5049048;28;19948;-80
2022/10/02 07:44:09;;;;;;;;;;;;;;;15.28;82.63;100882.13;5020842;28;19924;-79
2022/10/02 07:46:40;;;;;;;;;;;;;;;15.40;81.55;100885.75;5044731;28;19925;-79
2022/10/02 07:49:27;;;;;;;;;;;;;;;16.53;80.34;100880.16;5059951;28;20399;-79
2022/10/02 07:51:56;;;;;;;;;;;;;;;17.38;75.62;100878.97;5048696;28;19931;-78
2022/10/02 07:54:40;;;;;;;;;;;;;;;18.11;73.64;100881.13;5047450;28;19924;-79
2022/10/02 07:57:21;;;;;;;;;;;;;;;19.12;70.16;100874.47;5027124;28;19924;-79
2022/10/02 07:59:48;;;;;;;;;;;;;;;19.35;69.25;100881.31;5037038;28;19978;-78
2022/10/02 08:02:20;;;;;;;;;;;;;;;19.84;64.97;100875.25;5048759;28;19932;-78
2022/10/02 08:04:47;;;;;;;;;;;;;;;20.33;63.34;100881.56;5048127;28;19925;-77
2022/10/02 08:07:13;;;;;;;;;;;;;;;20.18;62.68;100878.41;5038827;28;19924;-77
2022/10/02 08:09:43;;;;;;;;;;;;;;;20.29;63.41;100875.66;5047707;28;19932;-77
2022/10/02 08:12:15;;;;;;;;;;;;;;;20.08;63.79;100874.91;5047996;28;19925;-78
2022/10/02 08:14:44;;;;;;;;;;;;;;;20.48;63.84;100874.00;5037695;28;19924;-78
2022/10/02 08:17:18;;;;;;;;;;;;;;;19.71;63.51;100869.34;5047638;28;19960;-77
2022/10/02 08:19:45;;;;;;;;;;;;;;;19.45;66.13;100868.09;5037393;28;19925;-75
2022/10/02 08:22:16;;;;;;;;;;;;;;;20.22;63.44;100879.84;5048755;28;19977;-75
2022/10/02 08:24:45;;;;;;;;;;;;;;;20.87;60.98;100870.38;5048098;28;19928;-75
2022/10/02 08:27:15;;;;;;;;;;;;;;;21.16;60.20;100865.84;5038182;28;20019;-74
2022/10/02 08:29:45;;;;;;;;;;;;;;;21.26;60.89;100868.47;5046307;28;19924;-74
2022/10/02 08:32:12;;;;;;;;;;;;;;;21.66;58.74;100863.69;5048743;28;20331;-74
2022/10/02 08:34:39;;;;;;;;;;;;;;;22.04;56.91;100862.69;5038035;28;19929;-74
2022/10/02 08:37:15;;;;;;;;;;;;;;;22.41;56.24;100870.59;5046904;28;19924;-74
2022/10/02 08:39:55;;;;;;;;;;;;;;;22.64;55.45;100865.63;5037689;28;20356;-74
2022/10/02 08:42:37;;;;;;;;;;;;;;;22.56;55.86;100869.06;5047368;28;20042;-74
2022/10/02 08:45:14;;;;;;;;;;;;;;;22.93;53.70;100865.41;5037233;28;20303;-73
2022/10/02 08:48:00;;;;;;;;;;;;;;;23.32;52.18;100871.22;5046841;28;19925;-73
2022/10/02 08:50:41;;;;;;;;;;;;;;;23.04;53.06;100883.88;5042584;28;19944;-74
2022/10/02 08:53:17;;;;;;;;;;;;;;;22.20;54.70;100875.41;5049011;28;19925;-74
2022/10/02 08:55:52;;;;;;;;;;;;;;;21.99;55.78;100864.97;5047782;28;20273;-74
2022/10/02 08:58:30;;;;;;;;;;;;;;;21.66;55.03;100869.03;5041939;28;20592;-74
2022/10/02 09:01:02;;;;;;;;;;;;;;;21.74;56.86;100881.66;5048703;28;20572;-73
2022/10/02 09:03:50;;;;;;;;;;;;;;;21.10;56.84;100882.38;5047335;28;19990;-74
2022/10/02 09:06:35;;;;;;;;;;;;;;;21.14;59.50;100873.13;5034814;28;20330;-71
2022/10/02 09:09:32;;;;;;;;;;;;;;;20.78;59.41;100863.19;5021789;28;19956;-71
2022/10/02 09:12:19;;;;;;;;;;;;;;;20.54;60.53;100871.66;5047404;28;20330;-71
2022/10/02 09:14:48;;;;;;;;;;;;;;;20.42;60.40;100866.56;5047588;28;20330;-71
2022/10/02 09:17:19;;;;;;;;;;;;;;;21.42;59.85;100859.88;5035094;28;19947;-72
2022/10/02 09:19:49;;;;;;;;;;;;;;;22.17;57.33;100862.34;5036253;28;19925;-71
2022/10/02 09:22:30;;;;;;;;;;;;;;;21.73;57.21;100863.94;5059352;28;19939;-71
2022/10/02 09:25:09;;;;;;;;;;;;;;;23.07;55.26;100857.66;5050280;28;20376;-73
2022/10/02 09:27:53;;;;;;;;;;;;;;;22.28;53.18;100864.81;5041781;28;20395;-71
2022/10/02 09:30:34;;;;;;;;;;;;;;;21.27;56.51;100855.00;5037600;28;20269;-71
2022/10/02 09:33:23;;;;;;;;;;;;;;;21.71;58.19;100871.28;5044485;28;19924;-71
2022/10/02 09:36:06;;;;;;;;;;;;;;;21.35;56.65;100870.28;5042897;28;19929;-71
2022/10/02 09:38:50;;;;;;;;;;;;;;;20.96;56.42;100868.66;5037472;28;19932;-71
2022/10/02 09:41:29;;;;;;;;;;;;;;;20.53;58.41;100871.78;5044946;28;20387;-71
2022/10/02 09:44:21;;;;;;;;;;;;;;;20.85;57.93;100861.66;5035892;28;19928;-71
2022/10/02 09:46:55;;;;;;;;;;;;;;;20.30;57.01;100857.88;5024472;28;19925;-71
2022/10/02 09:49:41;;;;;;;;;;;;;;;19.94;58.60;100869.97;5026790;28;19924;-72
2022/10/02 09:52:18;;;;;;;;;;;;;;;20.08;59.26;100869.56;5030798;28;19924;-72
2022/10/02 09:55:01;;;;;;;;;;;;;;;19.66;60.04;100866.22;5046871;28;19929;-72
2022/10/02 09:57:48;;;;;;;;;;;;;;;19.73;61.01;100871.88;5041283;28;19925;-73
2022/10/02 10:00:19;;;;;;;;;;;;;;;19.76;62.27;100864.47;5035372;28;19932;-72
2022/10/02 10:03:04;;;;;;;;;;;;;;;19.65;60.35;100869.88;5039837;28;20003;-71
2022/10/02 10:05:52;;;;;;;;;;;;;;;20.00;59.92;100863.25;5049238;28;19925;-72
2022/10/02 10:08:44;;;;;;;;;;;;;;;19.54;59.67;100877.94;5044933;28;20399;-71
2022/10/02 10:11:20;;;;;;;;;;;;;;;19.12;60.25;100870.97;5026045;28;19935;-72
2022/10/02 10:14:00;;;;;;;;;;;;;;;18.61;62.10;100884.16;5035185;28;19924;-72
2022/10/02 10:16:51;;;;;;;;;;;;;;;18.81;62.29;100888.63;5044050;28;19924;-72
2022/10/02 10:19:39;;;;;;;;;;;;;;;19.30;60.61;100880.03;4994718;28;20020;-72
2022/10/02 10:22:14;;;;;;;;;;;;;;;20.69;58.33;100888.91;5029319;28;19931;-72
2022/10/02 10:24:59;;;;;;;;;;;;;;;20.85;55.25;100878.50;5032608;28;20278;-72
2022/10/02 10:27:42;;;;;;;;;;;;;;;20.91;56.45;100877.09;5006159;28;20430;-72
2022/10/02 10:30:20;;;;;;;;;;;;;;;21.65;54.69;100877.22;5022147;28;20341;-73
2022/10/02 10:33:07;;;;;;;;;;;;;;;21.98;51.99;100874.00;5050380;28;19931;-72
2022/10/02 10:35:57;;;;;;;;;;;;;;;21.52;51.70;100868.69;5050471;28;19925;-68
2022/10/02 10:38:37;;;;;;;;;;;;;;;21.19;50.96;100876.22;5020097;28;19967;-68
2022/10/02 10:41:18;;;;;;;;;;;;;;;21.42;52.37;100870.56;5048724;28;19931;-68
2022/10/02 10:44:00;;;;;;;;;;;;;;;21.21;51.55;100865.44;5040024;28;19974;-68
2022/10/02 10:46:36;;;;;;;;;;;;;;;21.57;50.83;100866.44;5048171;28;19937;-68
2022/10/02 10:49:14;;;;;;;;;;;;;;;21.97;51.62;100874.13;5029483;28;20519;-68
2022/10/02 10:51:47;;;;;;;;;;;;;;;21.15;50.53;100876.66;5047993;28;19936;-67
2022/10/02 10:54:32;;;;;;;;;;;;;;;21.07;50.17;100872.00;5036930;28;19932;-67
2022/10/02 10:57:03;;;;;;;;;;;;;;;20.13;51.72;100870.03;5049194;28;19928;-68
2022/10/02 10:59:55;;;;;;;;;;;;;;;19.76;53.57;100866.28;5033997;28;19924;-68
2022/10/02 11:02:43;;;;;;;;;;;;;;;19.64;53.94;100881.50;5049415;28;19947;-68
2022/10/02 11:05:16;;;;;;;;;;;;;;;19.27;53.64;100870.50;5048619;28;19960;-68
2022/10/02 11:07:53;;;;;;;;;;;;;;;19.41;54.73;100859.53;5038915;28;19925;-68
2022/10/02 11:10:23;;;;;;;;;;;;;;;19.34;54.31;100863.69;5048381;28;19925;-68
2022/10/02 11:12:57;;;;;;;;;;;;;;;19.35;54.33;100867.19;5048672;28;19936;-68
2022/10/02 11:15:38;;;;;;;;;;;;;;;19.17;53.85;100877.59;5049236;28;20320;-68
2022/10/02 11:18:23;;;;;;;;;;;;;;;18.83;55.18;100881.41;5047804;28;19946;-68
2022/10/02 11:21:01;;;;;;;;;;;;;;;18.91;55.19;100868.31;5047977;28;20731;-68
2022/10/02 11:23:46;;;;;;;;;;;;;;;19.33;55.27;100872.63;5025974;28;19935;-68
2022/10/02 11:26:24;;;;;;;;;;;;;;;19.98;52.55;100881.19;5044047;28;20312;-68
2022/10/02 11:29:05;;;;;;;;;;;;;;;20.70;52.02;100876.38;5023561;28;19924;-68
2022/10/02 11:31:52;;;;;;;;;;;;;;;21.27;53.75;100879.03;5048804;28;19955;-67
2022/10/02 11:34:45;;;;;;;;;;;;;;;21.55;48.26;100876.38;5024659;28;19956;-68
2022/10/02 11:37:23;;;;;;;;;;;;;;;21.91;48.96;100878.25;4972010;28;19925;-67
2022/10/02 11:40:03;;;;;;;;;;;;;;;22.49;46.59;100881.38;5043657;28;19924;-68
2022/10/02 11:42:42;;;;;;;;;;;;;;;23.08;45.96;100883.41;5039741;28;19925;-68
2022/10/02 11:45:19;;;;;;;;;;;;;;;23.36;46.32;100878.72;5049540;28;19929;-68
2022/10/02 11:48:17;;;;;;;;;;;;;;;23.14;46.08;100879.25;5039307;28;20384;-68
2022/10/02 11:50:51;;;;;;;;;;;;;;;23.33;45.04;100883.56;5004046;28;19936;-67
2022/10/02 11:53:35;;;;;;;;;;;;;;;22.46;44.26;100880.84;5021458;28;19935;-67
2022/10/02 11:56:13;;;;;;;;;;;;;;;22.01;45.22;100886.19;5032301;28;19929;-68
2022/10/02 11:58:48;;;;;;;;;;;;;;;21.26;46.66;100893.34;5048066;28;19981;-68
2022/10/02 12:01:18;;;;;;;;;;;;;;;21.44;48.03;100873.91;5041963;28;19948;-68
2022/10/02 12:03:52;;;;;;;;;;;;;;;21.29;45.33;100878.84;5049187;28;19928;-68
2022/10/02 12:06:23;;;;;;;;;;;;;;;21.20;46.45;100885.91;5050000;28;19924;-68
2022/10/02 12:08:57;;;;;;;;;;;;;;;21.31;47.68;100882.25;5038453;28;20423;-68
2022/10/02 12:11:32;;;;;;;;;;;;;;;21.69;47.59;100867.94;5048000;28;19928;-68
2022/10/02 12:14:14;;;;;;;;;;;;;;;22.06;47.06;100876.72;5037781;28;20281;-68
2022/10/02 12:16:50;;;;;;;;;;;;;;;21.52;46.27;100871.34;5043076;28;19964;-68
2022/10/02 12:19:25;;;;;;;;;;;;;;;21.85;46.94;100876.13;5038390;28;19960;-67
2022/10/02 12:27:43;;;;;;;;;;;;;;;21.72;47.73;100878.31;5043584;28;19932;-67
2022/10/02 12:30:11;;;;;;;;;;;;;;;21.89;48.81;100872.16;5041923;28;19932;-67
2022/10/02 12:32:44;;;;;;;;;;;;;;;22.26;47.01;100870.28;5046341;28;20399;-68
2022/10/02 12:35:19;;;;;;;;;;;;;;;22.07;46.89;100873.06;5048489;28;20404;-68
2022/10/02 12:37:53;;;;;;;;;;;;;;;22.29;47.54;100874.47;5059982;28;19932;-68
2022/10/02 12:40:22;;;;;;;;;;;;;;;22.61;43.82;100880.16;5044883;28;19928;-68
2022/10/02 12:43:06;;;;;;;;;;;;;;;22.47;45.00;100874.50;5067440;28;19931;-68
2022/10/02 12:45:50;;;;;;;;;;;;;;;21.47;44.67;100886.97;5026426;28;20411;-68
2022/10/02 12:48:25;;;;;;;;;;;;;;;21.45;44.09;100881.78;5047182;28;19936;-68
2022/10/02 12:51:04;;;;;;;;;;;;;;;21.78;44.60;100875.03;5047822;28;19924;-68
2022/10/02 12:53:45;;;;;;;;;;;;;;;21.75;45.20;100881.50;5063995;28;19947;-68
2022/10/02 12:56:32;;;;;;;;;;;;;;;21.11;45.06;100872.59;5052741;28;20472;-68
2022/10/02 12:59:04;;;;;;;;;;;;;;;21.64;46.02;100876.38;5041538;28;19925;-68
2022/10/02 13:01:46;;;;;;;;;;;;;;;21.52;45.44;100871.34;5050076;28;19943;-68
2022/10/02 13:04:27;;;;;;;;;;;;;;;21.46;44.88;100862.13;5048849;28;19935;-68
2022/10/02 13:07:09;;;;;;;;;;;;;;;21.16;46.16;100860.53;5047969;28;19974;-68
2022/10/02 13:09:44;;;;;;;;;;;;;;;20.53;45.09;100869.09;5034750;28;20011;-68
2022/10/02 13:12:14;;;;;;;;;;;;;;;19.92;47.67;100877.22;5047231;28;20304;-68
2022/10/02 13:14:52;;;;;;;;;;;;;;;19.56;46.67;100883.97;5054874;28;19928;-67
2022/10/02 13:17:25;;;;;;;;;;;;;;;19.52;47.66;100879.03;5046362;28;19948;-68